createdAt,value
2018-10-07T00:00:31.687Z,3.67
2018-10-07T00:02:34.611Z,4.07
2018-10-07T00:04:37.562Z,3.03
2018-10-07T00:06:40.635Z,2.90
2018-10-07T00:08:44.327Z,3.30
2018-10-07T00:10:47.320Z,3.72
2018-10-07T00:12:51.334Z,3.23
2018-10-07T00:14:54.258Z,3.30
2018-10-07T00:16:57.185Z,3.80
2018-10-07T00:19:00.986Z,4.00
2018-10-07T00:21:04.666Z,3.37
2018-10-07T00:23:07.590Z,3.80
2018-10-07T00:25:10.533Z,3.40
2018-10-07T00:27:14.226Z,3.30
2018-10-07T00:29:17.146Z,3.47
2018-10-07T00:31:20.201Z,3.67
2018-10-07T00:33:24.627Z,4.30
2018-10-07T00:35:28.435Z,2.80
2018-10-07T00:37:32.158Z,3.80
2018-10-07T00:39:35.084Z,3.30
2018-10-07T00:41:38.802Z,3.97
2018-10-07T00:43:42.634Z,3.27
2018-10-07T00:45:46.321Z,3.60
2018-10-07T00:47:50.023Z,2.90
2018-10-07T00:49:53.755Z,3.57
2018-10-07T00:51:56.704Z,3.43
2018-10-07T00:53:59.796Z,3.60
2018-10-07T00:56:03.669Z,3.17
2018-10-07T00:58:06.597Z,4.23
2018-10-07T01:00:09.525Z,3.50
2018-10-07T01:02:12.658Z,3.80
2018-10-07T01:04:15.633Z,3.40
2018-10-07T01:06:18.544Z,3.83
2018-10-07T01:08:21.503Z,3.83
2018-10-07T01:10:24.425Z,3.50
2018-10-07T01:12:27.353Z,3.43
2018-10-07T01:14:31.191Z,3.43
2018-10-07T01:16:34.096Z,3.63
2018-10-07T01:18:37.159Z,3.23
2018-10-07T01:20:40.093Z,3.00
2018-10-07T01:22:43.804Z,3.60
2018-10-07T01:24:47.498Z,3.57
2018-10-07T01:26:51.231Z,3.03
2018-10-07T01:28:54.141Z,4.17
2018-10-07T01:30:57.052Z,3.70
2018-10-07T01:33:00.159Z,3.90
2018-10-07T01:35:03.240Z,3.78
2018-10-07T01:37:06.901Z,3.77
2018-10-07T01:39:09.922Z,3.97
2018-10-07T01:41:13.621Z,3.40
2018-10-07T01:43:17.288Z,3.67
2018-10-07T01:45:20.239Z,3.73
2018-10-07T01:47:23.171Z,4.40
2018-10-07T01:49:26.838Z,3.90
2018-10-07T01:51:29.871Z,3.83
2018-10-07T01:53:33.543Z,3.50
2018-10-07T01:55:36.520Z,4.10
2018-10-07T01:57:39.428Z,4.60
2018-10-07T01:59:43.106Z,3.90
2018-10-07T02:01:46.091Z,4.10
2018-10-07T02:03:49.098Z,4.30
2018-10-07T02:05:53.554Z,4.93
2018-10-07T02:07:56.477Z,4.87
2018-10-07T02:09:59.400Z,4.43
2018-10-07T02:12:02.337Z,3.83
2018-10-07T02:14:06.085Z,3.80
2018-10-07T02:16:09.723Z,4.37
2018-10-07T02:18:12.666Z,4.17
2018-10-07T02:20:15.627Z,3.70
2018-10-07T02:22:18.561Z,4.47
2018-10-07T02:24:21.492Z,5.13
2018-10-07T02:26:24.416Z,4.70
2018-10-07T02:28:27.356Z,4.50
2018-10-07T02:30:31.035Z,4.67
2018-10-07T02:32:34.728Z,4.03
2018-10-07T02:34:37.647Z,3.80
2018-10-07T02:36:40.560Z,5.23
2018-10-07T02:38:43.508Z,5.00
2018-10-07T02:40:46.431Z,4.40
2018-10-07T02:42:49.344Z,4.77
2018-10-07T02:44:53.047Z,3.87
2018-10-07T02:46:56.748Z,4.63
2018-10-07T02:49:00.443Z,5.00
2018-10-07T02:51:04.137Z,4.53
2018-10-07T02:53:07.130Z,5.30
2018-10-07T02:55:10.024Z,5.27
2018-10-07T02:57:12.931Z,4.90
2018-10-07T02:59:15.866Z,5.10
2018-10-07T03:01:18.883Z,5.03
2018-10-07T03:03:21.823Z,4.10
2018-10-07T03:05:24.846Z,6.00
2018-10-07T03:07:28.512Z,5.27
2018-10-07T03:09:31.456Z,6.43
2018-10-07T03:11:34.380Z,5.87
2018-10-07T03:13:37.316Z,5.03
2018-10-07T03:15:40.240Z,5.70
2018-10-07T03:17:43.919Z,5.63
2018-10-07T03:19:46.946Z,5.60
2018-10-07T03:21:50.611Z,6.50
2018-10-07T03:23:53.563Z,5.80
2018-10-07T03:25:56.471Z,5.87
2018-10-07T03:27:59.396Z,6.87
2018-10-07T03:30:02.352Z,6.77
2018-10-07T03:32:05.280Z,7.40
2018-10-07T03:34:08.216Z,6.27
2018-10-07T03:36:11.266Z,5.97
2018-10-07T03:38:14.306Z,6.57
2018-10-07T03:40:18.108Z,5.77
2018-10-07T03:42:21.774Z,6.53
2018-10-07T03:44:25.699Z,6.70
2018-10-07T03:46:30.122Z,5.90
2018-10-07T03:48:33.821Z,7.17
2018-10-07T03:50:37.511Z,6.60
2018-10-07T03:52:41.199Z,7.53
2018-10-07T03:54:44.127Z,7.10
2018-10-07T03:56:47.094Z,6.40
2018-10-07T03:58:50.792Z,6.50
2018-10-07T04:00:54.476Z,6.03
2018-10-07T04:02:58.171Z,6.00
2018-10-07T04:05:01.112Z,7.57
2018-10-07T04:07:04.031Z,7.47
2018-10-07T04:09:06.964Z,7.57
2018-10-07T04:11:09.904Z,7.30
2018-10-07T04:13:13.589Z,6.93
2018-10-07T04:15:16.527Z,6.80
2018-10-07T04:17:19.450Z,8.20
2018-10-07T04:19:22.411Z,7.20
2018-10-07T04:21:25.307Z,7.00
2018-10-07T04:23:28.215Z,6.70
2018-10-07T04:25:32.748Z,7.50
2018-10-07T04:27:35.708Z,7.27
2018-10-07T04:29:39.389Z,7.37
2018-10-07T04:31:42.344Z,7.43
2018-10-07T04:33:45.255Z,6.43
2018-10-07T04:35:48.168Z,7.17
2018-10-07T04:37:51.978Z,6.80
2018-10-07T04:39:55.791Z,7.83
2018-10-07T04:41:58.739Z,7.23
2018-10-07T04:44:02.420Z,6.40
2018-10-07T04:46:05.363Z,7.00
2018-10-07T04:48:08.296Z,7.10
2018-10-07T04:50:11.223Z,7.20
2018-10-07T04:52:14.293Z,7.73
2018-10-07T04:54:18.053Z,9.07
2018-10-07T04:56:21.013Z,10.47
2018-10-07T04:58:23.941Z,11.30
2018-10-07T05:00:27.687Z,11.17
2018-10-07T05:02:30.631Z,11.20
2018-10-07T05:04:34.443Z,10.50
2018-10-07T05:06:38.106Z,8.93
2018-10-07T05:08:41.229Z,9.40
2018-10-07T05:10:44.934Z,8.90
2018-10-07T05:12:48.603Z,10.00
2018-10-07T05:14:51.543Z,9.80
2018-10-07T05:16:54.461Z,8.73
2018-10-07T05:18:57.528Z,8.90
2018-10-07T05:21:00.508Z,8.63
2018-10-07T05:23:04.127Z,9.27
2018-10-07T05:25:07.266Z,9.03
2018-10-07T05:27:11.404Z,8.10
2018-10-07T05:29:14.438Z,8.70
2018-10-07T05:31:18.442Z,8.63
2018-10-07T05:33:21.428Z,8.53
2018-10-07T05:35:25.113Z,7.50
2018-10-07T05:37:28.795Z,7.80
2018-10-07T05:39:31.933Z,7.90
2018-10-07T05:41:34.856Z,8.50
2018-10-07T05:43:37.848Z,8.50
2018-10-07T05:45:40.796Z,7.67
2018-10-07T05:47:43.708Z,8.33
2018-10-07T05:49:46.629Z,6.83
2018-10-07T05:51:50.425Z,8.17
2018-10-07T05:53:53.411Z,7.62
2018-10-07T05:55:57.074Z,8.60
2018-10-07T05:58:00.012Z,7.83
2018-10-07T06:00:02.935Z,7.90
2018-10-07T06:02:05.918Z,8.03
2018-10-07T06:04:08.856Z,8.33
2018-10-07T06:06:11.788Z,7.60
2018-10-07T06:08:14.734Z,8.20
2018-10-07T06:10:17.722Z,7.77
2018-10-07T06:12:20.640Z,7.43
2018-10-07T06:14:24.471Z,8.07
2018-10-07T06:16:28.204Z,8.00
2018-10-07T06:18:31.153Z,8.47
2018-10-07T06:20:34.092Z,7.27
2018-10-07T06:22:37.042Z,7.17
2018-10-07T06:24:39.975Z,7.47
2018-10-07T06:26:44.517Z,8.30
2018-10-07T06:28:48.207Z,9.13
2018-10-07T06:30:51.893Z,8.37
2018-10-07T06:32:54.833Z,8.20
2018-10-07T06:34:57.739Z,8.57
2018-10-07T06:37:00.673Z,8.57
2018-10-07T06:39:03.708Z,8.65
2018-10-07T06:41:06.623Z,7.43
2018-10-07T06:43:10.429Z,7.30
2018-10-07T06:45:14.167Z,7.10
2018-10-07T06:47:17.218Z,7.10
2018-10-07T06:49:20.916Z,8.00
2018-10-07T06:51:24.002Z,8.03
2018-10-07T06:53:26.927Z,8.33
2018-10-07T06:55:29.884Z,7.67
2018-10-07T06:57:32.845Z,7.80
2018-10-07T06:59:36.575Z,8.20
2018-10-07T07:01:40.203Z,7.40
2018-10-07T07:03:43.152Z,8.90
2018-10-07T07:05:46.062Z,6.97
2018-10-07T07:07:49.198Z,8.40
2018-10-07T07:09:52.140Z,7.67
2018-10-07T07:11:55.863Z,7.83
2018-10-07T07:13:58.800Z,8.23
2018-10-07T07:16:01.719Z,7.23
2018-10-07T07:18:05.405Z,8.33
2018-10-07T07:20:08.383Z,8.00
2018-10-07T07:22:12.100Z,7.87
2018-10-07T07:24:15.796Z,7.37
2018-10-07T07:26:19.507Z,8.70
2018-10-07T07:28:23.325Z,8.07
2018-10-07T07:30:27.124Z,7.70
2018-10-07T07:32:30.815Z,7.80
2018-10-07T07:34:34.494Z,7.80
2018-10-07T07:36:37.443Z,8.37
2018-10-07T07:38:40.355Z,7.83
2018-10-07T07:40:43.301Z,9.00
2018-10-07T07:42:46.213Z,8.50
2018-10-07T07:44:49.131Z,9.00
2018-10-07T07:46:52.939Z,9.43
2018-10-07T07:48:56.609Z,8.67
2018-10-07T07:50:59.621Z,8.30
2018-10-07T07:53:03.283Z,10.10
2018-10-07T07:55:06.218Z,8.07
2018-10-07T07:57:09.172Z,9.40
2018-10-07T07:59:12.851Z,8.70
2018-10-07T08:01:15.780Z,8.00
2018-10-07T08:03:18.788Z,8.38
2018-10-07T08:05:21.711Z,7.72
2018-10-07T08:07:25.418Z,7.90
2018-10-07T08:09:28.319Z,7.77
2018-10-07T08:11:31.281Z,8.50
2018-10-07T08:13:34.975Z,9.10
2018-10-07T08:15:38.687Z,8.40
2018-10-07T08:17:42.463Z,8.80
2018-10-07T08:19:46.079Z,8.57
2018-10-07T08:21:49.784Z,9.00
2018-10-07T08:23:53.479Z,8.47
2018-10-07T08:25:57.190Z,8.77
2018-10-07T08:28:00.871Z,9.20
2018-10-07T08:30:04.560Z,9.10
2018-10-07T08:32:09.023Z,9.80
2018-10-07T08:34:11.955Z,8.77
2018-10-07T08:36:14.980Z,9.03
2018-10-07T08:38:18.794Z,8.67
2018-10-07T08:40:21.735Z,9.40
2018-10-07T08:42:26.152Z,8.27
2018-10-07T08:44:29.167Z,8.87
2018-10-07T08:46:32.865Z,9.07
2018-10-07T08:48:36.550Z,8.97
2018-10-07T08:50:40.368Z,7.97
2018-10-07T08:52:44.036Z,9.90
2018-10-07T08:54:46.960Z,8.27
2018-10-07T08:56:49.922Z,9.70
2018-10-07T08:58:53.605Z,9.47
2018-10-07T09:00:58.147Z,8.97
2018-10-07T09:03:01.824Z,8.80
2018-10-07T09:05:05.511Z,9.60
2018-10-07T09:07:09.963Z,9.40
2018-10-07T09:09:13.644Z,11.40
2018-10-07T09:11:17.347Z,10.07
2018-10-07T09:13:21.039Z,9.90
2018-10-07T09:15:24.740Z,10.80
2018-10-07T09:17:29.262Z,11.23
2018-10-07T09:19:32.176Z,9.80
2018-10-07T09:21:35.147Z,11.37
2018-10-07T09:23:38.160Z,12.85
2018-10-07T09:25:41.087Z,13.60
2018-10-07T09:27:44.767Z,13.17
2018-10-07T09:29:47.794Z,12.10
2018-10-07T09:31:51.475Z,13.30
2018-10-07T09:33:55.211Z,13.00
2018-10-07T09:35:58.132Z,12.67
2018-10-07T09:38:01.048Z,12.97
2018-10-07T09:40:04.771Z,14.20
2018-10-07T09:42:07.709Z,13.63
2018-10-07T09:44:10.636Z,13.83
2018-10-07T09:46:13.575Z,14.53
2018-10-07T09:48:18.123Z,14.63
2018-10-07T09:50:21.924Z,17.53
2018-10-07T09:52:25.167Z,16.77
2018-10-07T09:54:28.068Z,15.93
2018-10-07T09:56:31.099Z,17.30
2018-10-07T09:58:34.038Z,19.33
2018-10-07T10:00:37.775Z,18.17
2018-10-07T10:02:40.704Z,17.67
2018-10-07T10:04:44.110Z,19.75
2018-10-07T10:06:46.965Z,22.60
2018-10-07T10:08:49.899Z,18.60
2018-10-07T10:10:53.961Z,18.03
2018-10-07T10:12:56.855Z,21.03
2018-10-07T10:15:01.279Z,20.00
2018-10-07T10:17:04.240Z,19.57
2018-10-07T10:19:07.247Z,19.00
2018-10-07T10:21:11.708Z,19.53
2018-10-07T10:23:14.741Z,18.93
2018-10-07T10:25:18.557Z,19.13
2018-10-07T10:27:22.894Z,18.80
2018-10-07T10:29:26.624Z,20.30
2018-10-07T10:31:29.568Z,19.27
2018-10-07T10:33:33.575Z,20.87
2018-10-07T10:35:37.340Z,21.80
2018-10-07T10:37:40.366Z,20.37
2018-10-07T10:39:43.767Z,21.37
2018-10-07T10:41:46.722Z,21.07
2018-10-07T10:43:50.433Z,22.23
2018-10-07T10:45:54.116Z,19.43
2018-10-07T10:47:58.105Z,21.40
2018-10-07T10:50:01.025Z,21.53
2018-10-07T10:52:04.741Z,19.70
2018-10-07T10:54:07.711Z,19.33
2018-10-07T10:56:11.412Z,20.00
2018-10-07T10:58:15.088Z,22.70
2018-10-07T11:00:18.915Z,22.20
2018-10-07T11:02:22.614Z,22.50
2018-10-07T11:04:26.384Z,20.80
2018-10-07T11:06:29.311Z,20.30
2018-10-07T11:08:32.247Z,21.00
2018-10-07T11:10:35.316Z,21.87
2018-10-07T11:12:38.299Z,21.13
2018-10-07T11:14:41.533Z,21.63
2018-10-07T11:16:44.116Z,23.13
2018-10-07T11:18:47.708Z,22.27
2018-10-07T11:20:51.799Z,21.30
2018-10-07T11:22:54.408Z,23.17
2018-10-07T11:24:57.988Z,23.77
2018-10-07T11:27:00.617Z,20.20
2018-10-07T11:29:03.346Z,19.50
2018-10-07T11:31:06.838Z,19.30
2018-10-07T11:33:10.959Z,21.57
2018-10-07T11:35:14.702Z,21.33
2018-10-07T11:37:17.570Z,22.07
2018-10-07T11:39:20.459Z,22.37
2018-10-07T11:41:23.161Z,20.67
2018-10-07T11:43:27.084Z,20.80
2018-10-07T11:45:30.790Z,18.43
2018-10-07T11:47:33.409Z,20.27
2018-10-07T11:49:36.773Z,17.97
2018-10-07T11:51:40.365Z,20.43
2018-10-07T11:53:43.144Z,19.40
2018-10-07T11:55:46.642Z,16.90
2018-10-07T11:57:49.999Z,17.60
2018-10-07T11:59:52.694Z,16.00
2018-10-07T12:01:56.908Z,18.90
2018-10-07T12:04:00.996Z,17.23
2018-10-07T12:06:03.591Z,17.00
2018-10-07T12:08:06.472Z,14.57
2018-10-07T12:10:09.880Z,15.60
2018-10-07T12:12:12.440Z,17.13
2018-10-07T12:14:15.131Z,16.27
2018-10-07T12:16:18.513Z,15.30
2018-10-07T12:18:21.859Z,14.10
2018-10-07T12:20:24.509Z,17.40
2018-10-07T12:22:27.086Z,16.03
2018-10-07T12:24:29.666Z,15.27
2018-10-07T12:26:32.405Z,14.97
2018-10-07T12:28:35.753Z,16.10
2018-10-07T12:30:38.336Z,14.83
2018-10-07T12:32:41.140Z,15.77
2018-10-07T12:34:43.815Z,14.13
2018-10-07T12:36:46.512Z,16.70
2018-10-07T12:38:49.143Z,14.97
2018-10-07T12:40:51.728Z,13.50
2018-10-07T12:42:54.416Z,14.87
2018-10-07T12:44:57.707Z,15.10
2018-10-07T12:47:00.384Z,13.93
2018-10-07T12:49:02.977Z,13.00
2018-10-07T12:51:06.364Z,14.50
2018-10-07T12:53:09.707Z,14.27
2018-10-07T12:55:12.297Z,14.40
2018-10-07T12:57:14.917Z,14.37
2018-10-07T12:59:18.263Z,13.80
2018-10-07T13:01:20.872Z,17.20
2018-10-07T13:03:24.255Z,13.73
2018-10-07T13:05:27.742Z,13.60
2018-10-07T13:07:31.835Z,14.70
2018-10-07T13:09:34.492Z,14.23
2018-10-07T13:11:37.205Z,13.37
2018-10-07T13:13:41.291Z,14.13
2018-10-07T13:15:43.936Z,13.20
2018-10-07T13:17:46.544Z,13.83
2018-10-07T13:19:49.246Z,12.40
2018-10-07T13:21:52.615Z,12.00
2018-10-07T13:23:55.306Z,12.67
2018-10-07T13:25:58.660Z,13.63
2018-10-07T13:28:01.383Z,11.07
2018-10-07T13:30:03.959Z,11.90
2018-10-07T13:32:07.304Z,11.30
2018-10-07T13:34:09.933Z,9.90
2018-10-07T13:36:13.283Z,12.57
2018-10-07T13:38:15.869Z,13.17
2018-10-07T13:40:18.493Z,12.40
2018-10-07T13:42:21.070Z,11.60
2018-10-07T13:44:23.675Z,11.07
2018-10-07T13:46:26.277Z,11.33
2018-10-07T13:48:28.868Z,12.60
2018-10-07T13:50:32.244Z,11.60
2018-10-07T13:52:36.556Z,9.43
2018-10-07T13:54:40.256Z,9.43
2018-10-07T13:56:43.204Z,10.97
2018-10-07T13:58:46.215Z,10.30
2018-10-07T14:00:49.144Z,10.40
2018-10-07T14:02:52.063Z,9.30
2018-10-07T14:04:55.990Z,9.17
2018-10-07T14:06:59.659Z,8.00
2018-10-07T14:09:02.612Z,6.87
2018-10-07T14:11:05.578Z,8.77
2018-10-07T14:13:08.507Z,7.67
2018-10-07T14:15:12.927Z,7.40
2018-10-07T14:17:16.146Z,7.67
2018-10-07T14:19:19.807Z,7.57
2018-10-07T14:21:24.224Z,6.27
2018-10-07T14:23:27.424Z,7.00
2018-10-07T14:25:31.354Z,6.90
2018-10-07T14:27:34.308Z,6.40
2018-10-07T14:29:37.427Z,5.20
2018-10-07T14:31:40.336Z,8.53
2018-10-07T14:33:43.359Z,7.20
2018-10-07T14:35:46.321Z,6.93
2018-10-07T14:37:49.232Z,8.27
2018-10-07T14:39:52.920Z,8.60
2018-10-07T14:41:55.994Z,8.30
2018-10-07T14:43:58.908Z,8.47
2018-10-07T14:46:02.617Z,8.13
2018-10-07T14:48:05.565Z,8.73
2018-10-07T14:50:08.581Z,7.33
2018-10-07T14:52:12.264Z,7.20
2018-10-07T14:54:16.083Z,6.77
2018-10-07T14:56:19.750Z,6.87
2018-10-07T14:58:22.674Z,8.17
2018-10-07T15:00:25.615Z,9.23
2018-10-07T15:02:29.355Z,8.60
2018-10-07T15:04:32.229Z,7.37
2018-10-07T15:06:35.193Z,8.17
2018-10-07T15:08:38.884Z,7.77
2018-10-07T15:10:43.311Z,7.80
2018-10-07T15:12:47.129Z,7.80
2018-10-07T15:14:50.792Z,9.00
2018-10-07T15:16:53.811Z,7.33
2018-10-07T15:18:57.715Z,7.47
2018-10-07T15:21:01.399Z,7.80
2018-10-07T15:23:05.073Z,7.87
2018-10-07T15:25:08.083Z,8.63
2018-10-07T15:27:11.767Z,7.83
2018-10-07T15:29:16.242Z,7.70
2018-10-07T15:31:19.910Z,7.70
2018-10-07T15:33:23.586Z,8.27
2018-10-07T15:35:26.512Z,8.27
2018-10-07T15:37:29.456Z,7.50
2018-10-07T15:39:33.143Z,7.23
2018-10-07T15:41:37.707Z,6.50
2018-10-07T15:43:41.427Z,7.70
2018-10-07T15:45:44.352Z,7.80
2018-10-07T15:47:47.287Z,7.37
2018-10-07T15:49:50.223Z,8.10
2018-10-07T15:51:53.944Z,6.33
2018-10-07T15:53:57.647Z,7.73
2018-10-07T15:56:01.364Z,6.80
2018-10-07T15:58:04.279Z,6.60
2018-10-07T16:00:07.200Z,6.50
2018-10-07T16:02:11.010Z,6.80
2018-10-07T16:04:14.979Z,5.28
2018-10-07T16:06:17.961Z,5.03
2018-10-07T16:08:20.907Z,6.90
2018-10-07T16:10:23.827Z,4.97
2018-10-07T16:12:26.756Z,6.23
2018-10-07T16:14:29.729Z,6.50
2018-10-07T16:16:32.711Z,6.20
2018-10-07T16:18:36.439Z,6.70
2018-10-07T16:20:40.884Z,6.67
2018-10-07T16:22:43.787Z,4.43
2018-10-07T16:24:47.475Z,6.23
2018-10-07T16:26:50.411Z,5.33
2018-10-07T16:28:53.340Z,5.33
2018-10-07T16:30:56.356Z,4.60
2018-10-07T16:33:00.057Z,5.23
2018-10-07T16:35:03.731Z,5.10
2018-10-07T16:37:08.143Z,4.97
2018-10-07T16:39:11.105Z,4.10
2018-10-07T16:41:14.011Z,4.90
2018-10-07T16:43:16.919Z,4.20
2018-10-07T16:45:20.628Z,4.13
2018-10-07T16:47:23.543Z,4.40
2018-10-07T16:49:26.467Z,3.90
2018-10-07T16:51:30.168Z,3.80
2018-10-07T16:53:33.853Z,3.93
2018-10-07T16:55:38.272Z,3.40
2018-10-07T16:57:41.197Z,3.00
2018-10-07T16:59:44.107Z,3.90
2018-10-07T17:01:47.007Z,3.53
2018-10-07T17:03:49.958Z,2.83
2018-10-07T17:05:52.864Z,3.17
2018-10-07T17:07:55.866Z,3.08
2018-10-07T17:09:59.596Z,3.50
2018-10-07T17:12:04.008Z,3.17
2018-10-07T17:14:06.996Z,3.37
2018-10-07T17:16:10.905Z,3.10
2018-10-07T17:18:13.847Z,3.30
2018-10-07T17:20:16.859Z,2.70
2018-10-07T17:22:20.867Z,3.10
2018-10-07T17:24:23.808Z,3.00
2018-10-07T17:26:26.834Z,2.90
2018-10-07T17:28:29.919Z,2.87
2018-10-07T17:30:33.926Z,3.13
2018-10-07T17:32:39.046Z,3.03
2018-10-07T17:34:41.952Z,2.90
2018-10-07T17:36:44.879Z,2.47
2018-10-07T17:38:48.182Z,2.55
2018-10-07T17:40:51.711Z,2.17
2018-10-07T17:42:54.652Z,2.73
2018-10-07T17:44:57.674Z,2.30
2018-10-07T17:47:01.357Z,2.80
2018-10-07T17:49:05.197Z,2.50
2018-10-07T17:51:08.261Z,2.50
2018-10-07T17:53:11.924Z,2.30
2018-10-07T17:55:14.852Z,3.13
2018-10-07T17:57:18.032Z,2.90
2018-10-07T17:59:21.730Z,2.70
2018-10-07T18:01:25.390Z,2.30
2018-10-07T18:03:28.321Z,2.70
2018-10-07T18:05:31.251Z,2.97
2018-10-07T18:07:34.932Z,2.60
2018-10-07T18:09:38.036Z,1.90
2018-10-07T18:11:41.061Z,3.00
2018-10-07T18:13:45.173Z,2.63
2018-10-07T18:15:48.566Z,2.70
2018-10-07T18:17:51.857Z,2.60
2018-10-07T18:19:54.807Z,2.90
2018-10-07T18:21:59.412Z,2.23
2018-10-07T18:24:02.647Z,1.90
2018-10-07T18:26:05.815Z,2.67
2018-10-07T18:28:09.946Z,2.50
2018-10-07T18:30:13.849Z,2.30
2018-10-07T18:32:16.883Z,2.50
2018-10-07T18:34:19.852Z,2.67
2018-10-07T18:36:23.755Z,2.50
2018-10-07T18:38:26.804Z,3.10
2018-10-07T18:40:30.480Z,2.30
2018-10-07T18:42:33.488Z,2.80
2018-10-07T18:44:37.247Z,2.90
2018-10-07T18:46:40.380Z,2.30
2018-10-07T18:48:43.431Z,1.83
2018-10-07T18:50:46.405Z,2.80
2018-10-07T18:52:49.412Z,2.03
2018-10-07T18:54:53.206Z,2.30
2018-10-07T18:56:56.198Z,2.50
2018-10-07T18:58:59.299Z,2.40
2018-10-07T19:01:02.326Z,2.10
2018-10-07T19:03:05.277Z,2.83
2018-10-07T19:05:08.274Z,2.50
2018-10-07T19:07:11.313Z,2.87
2018-10-07T19:09:14.316Z,2.30
2018-10-07T19:11:17.983Z,2.10
2018-10-07T19:13:21.028Z,2.60
2018-10-07T19:15:24.028Z,2.77
2018-10-07T19:17:27.037Z,2.97
2018-10-07T19:19:29.989Z,2.87
2018-10-07T19:21:32.987Z,2.60
2018-10-07T19:23:36.206Z,2.43
2018-10-07T19:25:39.995Z,2.60
2018-10-07T19:27:42.999Z,2.50
2018-10-07T19:29:47.185Z,2.03
2018-10-07T19:31:50.283Z,2.33
2018-10-07T19:33:54.122Z,3.00
2018-10-07T19:35:57.501Z,2.80
2018-10-07T19:38:01.439Z,2.90
2018-10-07T19:40:04.460Z,3.00
2018-10-07T19:42:07.582Z,3.43
2018-10-07T19:44:10.628Z,3.33
2018-10-07T19:46:13.644Z,3.27
2018-10-07T19:48:16.683Z,2.80
2018-10-07T19:50:20.343Z,2.97
2018-10-07T19:52:23.293Z,3.43
2018-10-07T19:54:27.056Z,2.80
2018-10-07T19:56:30.136Z,2.97
2018-10-07T19:58:34.019Z,3.30
2018-10-07T20:00:38.496Z,2.87
2018-10-07T20:02:42.453Z,3.30
2018-10-07T20:04:45.507Z,3.30
2018-10-07T20:06:49.517Z,3.13
2018-10-07T20:08:53.192Z,3.60
2018-10-07T20:10:56.128Z,3.10
2018-10-07T20:12:59.029Z,3.63
2018-10-07T20:15:02.004Z,4.20
2018-10-07T20:17:04.940Z,3.30
2018-10-07T20:19:08.662Z,3.70
2018-10-07T20:21:11.562Z,3.70
2018-10-07T20:23:14.464Z,4.00
2018-10-07T20:25:17.386Z,3.30
2018-10-07T20:27:21.292Z,3.77
2018-10-07T20:29:24.215Z,3.60
2018-10-07T20:31:27.128Z,3.53
2018-10-07T20:33:30.083Z,3.73
2018-10-07T20:35:33.005Z,3.80
2018-10-07T20:37:36.671Z,3.50
2018-10-07T20:39:39.624Z,3.67
2018-10-07T20:41:42.560Z,4.60
2018-10-07T20:43:46.247Z,4.70
2018-10-07T20:45:49.196Z,4.87
2018-10-07T20:47:52.126Z,4.13
2018-10-07T20:49:55.818Z,5.00
2018-10-07T20:51:58.884Z,5.37
2018-10-07T20:54:02.515Z,5.27
2018-10-07T20:56:06.192Z,5.40
2018-10-07T20:58:09.123Z,5.00
2018-10-07T21:00:12.054Z,5.43
2018-10-07T21:02:15.108Z,5.50
2018-10-07T21:04:18.052Z,4.97
2018-10-07T21:06:21.734Z,5.20
2018-10-07T21:08:25.420Z,3.63
2018-10-07T21:10:28.372Z,5.30
2018-10-07T21:12:31.321Z,5.20
2018-10-07T21:14:34.999Z,5.93
2018-10-07T21:16:38.703Z,5.73
2018-10-07T21:18:42.376Z,5.43
2018-10-07T21:20:45.403Z,5.03
2018-10-07T21:22:49.211Z,5.23
2018-10-07T21:24:52.130Z,5.80
2018-10-07T21:26:55.047Z,6.20
2018-10-07T21:28:58.869Z,5.77
2018-10-07T21:31:01.796Z,4.83
2018-10-07T21:33:04.702Z,4.50
2018-10-07T21:35:07.650Z,5.47
2018-10-07T21:37:10.573Z,5.27
2018-10-07T21:39:13.493Z,5.37
2018-10-07T21:41:16.445Z,5.50
2018-10-07T21:43:19.429Z,6.12
2018-10-07T21:45:23.151Z,5.40
2018-10-07T21:47:26.859Z,6.10
2018-10-07T21:49:29.783Z,6.10
2018-10-07T21:51:32.710Z,6.90
2018-10-07T21:53:36.511Z,5.00
2018-10-07T21:55:40.199Z,6.23
2018-10-07T21:57:43.891Z,5.30
2018-10-07T21:59:47.614Z,5.33
2018-10-07T22:01:50.532Z,5.70
2018-10-07T22:03:53.444Z,5.63
2018-10-07T22:05:56.402Z,5.00
2018-10-07T22:07:59.339Z,5.07
2018-10-07T22:10:03.012Z,5.20
2018-10-07T22:12:06.124Z,5.77
2018-10-07T22:14:09.803Z,5.33
2018-10-07T22:16:13.500Z,5.50
2018-10-07T22:18:17.356Z,5.50
2018-10-07T22:20:21.103Z,5.70
2018-10-07T22:22:24.113Z,6.20
2018-10-07T22:24:27.820Z,6.57
2018-10-07T22:26:30.739Z,6.83
2018-10-07T22:28:33.782Z,6.70
2018-10-07T22:30:37.493Z,5.37
2018-10-07T22:32:40.424Z,6.60
2018-10-07T22:34:43.359Z,5.70
2018-10-07T22:36:46.287Z,6.40
2018-10-07T22:38:49.319Z,5.80
2018-10-07T22:40:52.232Z,6.47
2018-10-07T22:42:55.263Z,6.90
2018-10-07T22:44:58.947Z,7.77
2018-10-07T22:47:03.367Z,5.70
2018-10-07T22:49:07.295Z,5.37
2018-10-07T22:51:10.967Z,5.83
2018-10-07T22:53:14.659Z,6.10
2018-10-07T22:55:17.613Z,5.60
2018-10-07T22:57:20.529Z,5.20
2018-10-07T22:59:23.533Z,5.67
2018-10-07T23:01:26.471Z,4.80
2018-10-07T23:03:29.383Z,4.77
2018-10-07T23:05:32.402Z,5.53
2018-10-07T23:07:35.472Z,6.30
2018-10-07T23:09:39.836Z,4.90
2018-10-07T23:11:42.739Z,6.17
2018-10-07T23:13:46.380Z,6.40
2018-10-07T23:15:49.288Z,6.00
2018-10-07T23:17:52.204Z,5.30
2018-10-07T23:19:56.138Z,5.73
2018-10-07T23:21:59.803Z,5.87
2018-10-07T23:24:02.727Z,5.93
2018-10-07T23:26:05.672Z,5.10
2018-10-07T23:28:08.683Z,5.80
2018-10-07T23:30:12.486Z,6.20
2018-10-07T23:32:16.188Z,5.90
2018-10-07T23:34:19.127Z,6.30
2018-10-07T23:36:22.151Z,5.77
2018-10-07T23:38:25.871Z,6.10
2018-10-07T23:40:28.785Z,5.93
2018-10-07T23:42:31.704Z,5.57
2018-10-07T23:44:35.006Z,6.50
2018-10-07T23:46:38.705Z,5.93
2018-10-07T23:48:42.394Z,6.10
2018-10-07T23:50:46.105Z,6.23
2018-10-07T23:52:49.772Z,6.37
2018-10-07T23:54:52.788Z,5.90
2018-10-07T23:56:57.307Z,6.20
2018-10-07T23:59:00.979Z,6.07
